Time;durP1;ratioP1;P1;durP2;ratioP2;P2;SDS_P1;SDS_P2;PMS_P1;PMS_P2;Temp;Humidity;BMP_temperature;BMP_pressure;BME280_temperature;BME280_humidity;BME280_pressure;Samples;Min_cycle;Max_cycle;Signal;HPM_P1;HPM_P2
2021/07/26 00:00:53;;;;;;;4.13;3.37;;;20.20;99.90;;;;;;5035903;28;20292;-50
2021/07/26 00:03:20;;;;;;;5.30;3.10;;;20.20;99.90;;;;;;5040875;28;20556;-50
2021/07/26 00:05:54;;;;;;;4.70;3.23;;;20.20;99.90;;;;;;5041974;28;20658;-50
2021/07/26 00:08:33;;;;;;;4.00;3.60;;;20.10;99.90;;;;;;5046678;28;20211;-51
2021/07/26 00:11:01;;;;;;;4.50;3.00;;;20.10;99.90;;;;;;5042997;28;20209;-50
2021/07/26 00:13:28;;;;;;;7.57;4.23;;;20.20;99.90;;;;;;5041752;28;20288;-50
2021/07/26 00:15:55;;;;;;;5.80;3.40;;;20.10;99.90;;;;;;5036720;28;20226;-51
2021/07/26 00:18:22;;;;;;;4.73;3.80;;;20.10;99.90;;;;;;5042464;28;20660;-50
2021/07/26 00:20:49;;;;;;;4.90;3.40;;;20.10;99.90;;;;;;5039242;28;20636;-50
2021/07/26 00:23:16;;;;;;;5.60;3.80;;;20.10;99.90;;;;;;5037282;28;20287;-50
2021/07/26 00:25:43;;;;;;;4.63;3.57;;;20.10;99.90;;;;;;5033263;28;20206;-50
2021/07/26 00:28:10;;;;;;;4.93;4.37;;;20.10;99.90;;;;;;5041404;28;20298;-50
2021/07/26 00:30:37;;;;;;;6.13;3.53;;;20.10;99.90;;;;;;5040855;28;20272;-50
2021/07/26 00:36:27;;;;;;;6.07;3.93;;;20.00;99.90;;;;;;5035443;28;20235;-50
2021/07/26 00:38:54;;;;;;;5.97;4.03;;;20.00;99.90;;;;;;5037643;28;20297;-50
2021/07/26 00:41:22;;;;;;;6.47;3.60;;;20.00;99.90;;;;;;5033555;28;20274;-50
2021/07/26 00:43:49;;;;;;;6.00;4.03;;;19.90;99.90;;;;;;5039473;28;20208;-50
2021/07/26 00:46:16;;;;;;;5.30;3.97;;;19.90;99.90;;;;;;5033228;28;20292;-50
2021/07/26 00:48:44;;;;;;;5.27;4.30;;;19.90;99.90;;;;;;5036174;28;20290;-50
2021/07/26 00:51:12;;;;;;;4.80;4.27;;;19.80;99.90;;;;;;5033603;28;20306;-50
2021/07/26 00:53:39;;;;;;;9.17;4.80;;;19.90;99.90;;;;;;5037145;28;20309;-50
2021/07/26 00:56:06;;;;;;;5.30;4.37;;;19.90;99.90;;;;;;5033160;28;20304;-50
2021/07/26 00:58:34;;;;;;;5.23;4.00;;;19.90;99.90;;;;;;5038072;28;20335;-50
2021/07/26 01:01:03;;;;;;;6.67;4.93;;;19.80;99.90;;;;;;5037760;28;20230;-51
2021/07/26 01:03:30;;;;;;;7.70;4.20;;;19.80;99.90;;;;;;5038486;28;20674;-50
2021/07/26 01:05:57;;;;;;;5.50;4.03;;;19.80;99.90;;;;;;5039312;28;20290;-50
2021/07/26 01:08:24;;;;;;;4.83;4.30;;;19.80;99.90;;;;;;5038103;28;20227;-50
2021/07/26 01:10:51;;;;;;;5.40;4.10;;;19.80;99.90;;;;;;5031581;28;20658;-50
2021/07/26 01:13:18;;;;;;;5.93;4.03;;;19.70;99.90;;;;;;5039290;28;20557;-50
2021/07/26 01:15:45;;;;;;;5.43;4.03;;;19.70;99.90;;;;;;5036771;28;20205;-50
2021/07/26 01:18:23;;;;;;;5.73;3.97;;;19.70;99.90;;;;;;5038697;28;20192;-51
2021/07/26 01:20:54;;;;;;;4.90;4.17;;;19.60;99.90;;;;;;5039335;28;20208;-50
2021/07/26 01:23:22;;;;;;;8.33;4.77;;;19.70;99.90;;;;;;5031459;28;20204;-50
2021/07/26 01:25:50;;;;;;;6.40;4.10;;;19.70;99.90;;;;;;5035097;28;20931;-50
2021/07/26 01:28:18;;;;;;;5.07;4.13;;;19.60;99.90;;;;;;5038802;28;20255;-50
2021/07/26 01:30:46;;;;;;;5.80;4.47;;;19.60;99.90;;;;;;5036931;28;20302;-50
2021/07/26 01:33:15;;;;;;;6.20;4.27;;;19.60;99.90;;;;;;5039279;28;20314;-50
2021/07/26 01:35:42;;;;;;;5.17;4.50;;;19.60;99.90;;;;;;5038775;28;20299;-50
2021/07/26 01:38:09;;;;;;;5.50;4.37;;;19.60;99.90;;;;;;5041874;28;20620;-50
2021/07/26 01:40:39;;;;;;;6.30;4.83;;;19.60;99.90;;;;;;5037114;28;20275;-50
2021/07/26 01:43:10;;;;;;;6.30;4.60;;;19.70;99.90;;;;;;5037475;28;20298;-51
2021/07/26 01:45:39;;;;;;;5.70;5.07;;;19.60;99.90;;;;;;5039734;28;20237;-50
2021/07/26 01:48:18;;;;;;;7.50;5.00;;;19.60;99.90;;;;;;5040010;28;20200;-51
2021/07/26 01:50:52;;;;;;;5.37;4.50;;;19.60;99.90;;;;;;5037585;28;20304;-50
2021/07/26 01:53:19;;;;;;;4.77;4.07;;;19.60;99.90;;;;;;5036927;28;20303;-50
2021/07/26 01:55:46;;;;;;;5.30;4.63;;;19.60;99.90;;;;;;5037470;28;20311;-50
2021/07/26 01:58:13;;;;;;;5.80;4.63;;;19.50;99.90;;;;;;5037868;28;20295;-51
2021/07/26 02:00:40;;;;;;;5.53;4.67;;;19.50;99.90;;;;;;5036681;28;20231;-50
2021/07/26 02:03:07;;;;;;;6.07;5.00;;;19.50;99.90;;;;;;5038755;28;20200;-50
2021/07/26 02:05:34;;;;;;;8.33;4.47;;;19.50;99.90;;;;;;5036709;28;20302;-50
2021/07/26 02:08:01;;;;;;;6.07;3.93;;;19.50;99.90;;;;;;5039550;28;20218;-50
2021/07/26 02:10:27;;;;;;;7.53;4.63;;;19.50;99.90;;;;;;5035068;28;20619;-50
2021/07/26 02:12:57;;;;;;;7.23;4.90;;;19.60;99.90;;;;;;5037888;28;20250;-50
2021/07/26 02:15:24;;;;;;;7.87;4.93;;;19.60;99.90;;;;;;5036231;28;20446;-50
2021/07/26 02:17:51;;;;;;;6.33;4.57;;;19.50;99.90;;;;;;5037782;28;20231;-50
2021/07/26 02:20:18;;;;;;;6.57;4.00;;;19.40;99.90;;;;;;5037362;28;20295;-50
2021/07/26 02:22:44;;;;;;;5.70;4.13;;;19.40;99.90;;;;;;5039688;28;20239;-50
2021/07/26 02:25:12;;;;;;;6.53;4.70;;;19.40;99.90;;;;;;5035562;28;20298;-50
2021/07/26 02:27:38;;;;;;;4.73;4.30;;;19.40;99.90;;;;;;5038122;28;20236;-50
2021/07/26 02:30:06;;;;;;;6.03;4.40;;;19.30;99.90;;;;;;5038570;28;20699;-50
2021/07/26 02:32:32;;;;;;;6.30;4.17;;;19.30;99.90;;;;;;5035813;28;20338;-50
2021/07/26 02:34:59;;;;;;;6.53;4.40;;;19.30;99.90;;;;;;5037545;28;20310;-50
2021/07/26 02:37:26;;;;;;;6.43;4.07;;;19.30;99.90;;;;;;5037850;28;20747;-49
2021/07/26 02:39:52;;;;;;;6.27;4.30;;;19.20;99.90;;;;;;5037276;28;20701;-50
2021/07/26 02:42:19;;;;;;;5.93;4.10;;;19.20;99.90;;;;;;5037399;28;20211;-49
2021/07/26 02:44:46;;;;;;;5.50;4.10;;;19.10;99.90;;;;;;5031426;28;20569;-50
2021/07/26 02:47:13;;;;;;;5.30;4.00;;;19.20;99.90;;;;;;5036446;28;20699;-50
2021/07/26 02:49:40;;;;;;;6.73;4.60;;;19.30;99.90;;;;;;5037781;28;20310;-50
2021/07/26 02:52:07;;;;;;;5.40;4.07;;;19.30;99.90;;;;;;5036536;28;20286;-50
2021/07/26 02:54:34;;;;;;;4.20;3.73;;;19.30;99.90;;;;;;5036267;28;20199;-50
2021/07/26 02:57:01;;;;;;;5.10;4.03;;;19.20;99.90;;;;;;5038544;28;20204;-50
2021/07/26 02:59:27;;;;;;;5.23;3.77;;;19.20;99.90;;;;;;5037524;28;20266;-51
2021/07/26 03:01:54;;;;;;;6.67;4.20;;;19.20;99.90;;;;;;5036335;28;20297;-50
2021/07/26 03:04:21;;;;;;;4.67;3.93;;;19.20;99.90;;;;;;5038886;28;20206;-50
2021/07/26 03:06:48;;;;;;;5.00;3.47;;;19.10;99.90;;;;;;5038175;28;20605;-50
2021/07/26 03:09:14;;;;;;;4.83;3.73;;;19.10;99.90;;;;;;5036608;28;20199;-50
2021/07/26 03:11:41;;;;;;;4.27;3.47;;;19.10;99.90;;;;;;5039080;28;20291;-50
2021/07/26 03:14:08;;;;;;;9.07;4.10;;;19.10;99.90;;;;;;5035009;28;20310;-51
2021/07/26 03:16:35;;;;;;;6.23;4.13;;;19.10;99.90;;;;;;5035796;28;20218;-50
2021/07/26 03:19:02;;;;;;;4.77;3.93;;;19.10;99.90;;;;;;5036249;28;20248;-50
2021/07/26 03:21:29;;;;;;;5.10;4.10;;;19.10;99.90;;;;;;5038400;28;20632;-50
2021/07/26 03:23:55;;;;;;;5.73;3.57;;;19.00;99.90;;;;;;5036762;28;20235;-50
2021/07/26 03:26:22;;;;;;;4.70;3.70;;;19.00;99.90;;;;;;5042981;28;20294;-50
2021/07/26 03:28:49;;;;;;;5.33;3.70;;;19.10;99.90;;;;;;5039814;28;20408;-50
2021/07/26 03:31:15;;;;;;;5.03;3.63;;;19.10;99.90;;;;;;5041926;28;20321;-50
2021/07/26 03:33:44;;;;;;;4.80;3.57;;;19.20;99.90;;;;;;5036144;28;20641;-50
2021/07/26 03:36:14;;;;;;;4.37;3.50;;;19.10;99.90;;;;;;5038393;28;20294;-50
2021/07/26 03:38:41;;;;;;;5.80;3.43;;;18.90;99.90;;;;;;5032875;28;20554;-50
2021/07/26 03:41:08;;;;;;;5.93;3.70;;;18.90;99.90;;;;;;5040470;28;20228;-50
2021/07/26 03:43:35;;;;;;;6.10;4.03;;;19.00;99.90;;;;;;5043244;28;20593;-50
2021/07/26 03:46:02;;;;;;;4.80;3.60;;;19.10;99.90;;;;;;5039840;28;20286;-50
2021/07/26 03:48:28;;;;;;;6.10;3.83;;;19.10;99.90;;;;;;5039037;28;20238;-50
2021/07/26 03:50:55;;;;;;;4.47;3.70;;;19.10;99.90;;;;;;5039664;28;20650;-50
2021/07/26 03:53:22;;;;;;;4.53;3.67;;;19.10;99.90;;;;;;5041226;28;20268;-50
2021/07/26 03:55:49;;;;;;;6.00;3.77;;;19.20;99.90;;;;;;5037927;28;20291;-50
2021/07/26 03:58:16;;;;;;;4.67;3.30;;;19.20;99.90;;;;;;5041086;28;20279;-50
2021/07/26 04:00:42;;;;;;;6.43;3.13;;;19.10;99.90;;;;;;5038986;28;20761;-50
2021/07/26 04:05:58;;;;;;;5.70;3.33;;;19.00;99.90;;;;;;5039108;28;20546;-50
2021/07/26 04:08:31;;;;;;;4.87;3.47;;;19.00;99.90;;;;;;5039442;28;20855;-50
2021/07/26 04:13:34;;;;;;;4.43;3.60;;;18.70;99.90;;;;;;5037618;28;20578;-50
2021/07/26 04:16:02;;;;;;;7.13;3.53;;;18.80;99.90;;;;;;5039680;28;20204;-50
2021/07/26 04:18:29;;;;;;;4.23;3.30;;;18.90;99.90;;;;;;5040251;28;20538;-50
2021/07/26 04:20:56;;;;;;;4.43;3.40;;;18.90;99.90;;;;;;5040299;28;20260;-50
2021/07/26 04:23:23;;;;;;;5.37;3.47;;;18.80;99.90;;;;;;5039294;28;20295;-50
2021/07/26 04:25:51;;;;;;;3.83;2.97;;;18.70;99.90;;;;;;5039069;28;20299;-50
2021/07/26 04:28:18;;;;;;;4.50;3.33;;;18.90;99.90;;;;;;5037599;28;20351;-50
2021/07/26 04:30:45;;;;;;;4.00;3.20;;;18.90;99.90;;;;;;5037605;28;20804;-50
2021/07/26 04:33:12;;;;;;;4.70;3.43;;;18.90;99.90;;;;;;5038443;28;20252;-50
2021/07/26 04:35:38;;;;;;;4.10;3.40;;;18.90;99.90;;;;;;5039460;28;20287;-50
2021/07/26 04:38:05;;;;;;;6.33;3.67;;;18.90;99.90;;;;;;5041167;28;20295;-50
2021/07/26 04:40:32;;;;;;;6.03;4.23;;;18.90;99.90;;;;;;5036377;28;20231;-50
2021/07/26 04:42:59;;;;;;;7.50;3.80;;;18.90;99.90;;;;;;5037427;28;20314;-50
2021/07/26 04:45:26;;;;;;;4.47;3.70;;;18.90;99.90;;;;;;5040475;28;20239;-50
2021/07/26 04:47:53;;;;;;;5.07;3.57;;;18.80;99.90;;;;;;5038592;28;20246;-50
2021/07/26 04:50:19;;;;;;;6.03;3.77;;;18.90;99.90;;;;;;5039357;28;20310;-50
2021/07/26 04:52:46;;;;;;;6.03;4.07;;;18.90;99.90;;;;;;5038065;28;20303;-50
2021/07/26 04:55:13;;;;;;;7.60;3.80;;;18.90;99.90;;;;;;5039830;28;20332;-50
2021/07/26 04:57:40;;;;;;;5.83;3.97;;;18.90;99.90;;;;;;5041812;28;20257;-50
2021/07/26 05:00:07;;;;;;;6.83;3.90;;;18.80;99.90;;;;;;5039945;28;20266;-50
2021/07/26 05:02:34;;;;;;;5.93;4.37;;;18.80;99.90;;;;;;5034978;28;20350;-50
2021/07/26 05:05:01;;;;;;;6.87;3.53;;;19.00;99.90;;;;;;5036750;28;20208;-50
2021/07/26 05:07:28;;;;;;;5.60;3.17;;;18.90;99.90;;;;;;5038480;28;20234;-50
2021/07/26 05:09:55;;;;;;;4.40;3.70;;;18.90;99.90;;;;;;5044800;28;20523;-50
2021/07/26 05:12:22;;;;;;;4.57;4.13;;;18.80;99.90;;;;;;5041220;28;20231;-50
2021/07/26 05:14:52;;;;;;;5.30;3.63;;;18.80;99.90;;;;;;5036140;28;20803;-50
2021/07/26 05:17:26;;;;;;;6.80;5.20;;;18.80;99.90;;;;;;5038277;28;20645;-50
2021/07/26 05:19:54;;;;;;;5.10;3.70;;;18.70;99.90;;;;;;5036513;28;20611;-50
2021/07/26 05:22:21;;;;;;;7.80;4.10;;;18.70;99.90;;;;;;5040783;28;20241;-50
2021/07/26 05:24:50;;;;;;;5.93;3.90;;;18.70;99.90;;;;;;5038478;28;20202;-50
2021/07/26 05:27:17;;;;;;;7.03;4.47;;;18.60;99.90;;;;;;5038404;28;20317;-50
2021/07/26 05:29:44;;;;;;;4.87;4.20;;;18.70;99.90;;;;;;5039199;28;20631;-50
2021/07/26 05:32:11;;;;;;;7.73;4.37;;;18.70;99.90;;;;;;5038395;28;20321;-50
2021/07/26 05:34:37;;;;;;;10.03;4.60;;;18.70;99.90;;;;;;5040081;28;20307;-50
2021/07/26 05:37:05;;;;;;;6.17;4.00;;;18.70;99.90;;;;;;5038567;28;20255;-50
2021/07/26 05:39:31;;;;;;;7.67;4.33;;;18.80;99.90;;;;;;5039727;28;20296;-50
2021/07/26 05:42:00;;;;;;;10.93;4.13;;;18.90;99.90;;;;;;5037136;28;20276;-50
2021/07/26 05:44:28;;;;;;;7.00;4.07;;;18.80;99.90;;;;;;5038523;28;20324;-50
2021/07/26 05:46:55;;;;;;;7.80;4.00;;;18.90;99.90;;;;;;5037426;28;20247;-50
2021/07/26 05:49:21;;;;;;;8.83;4.20;;;18.90;99.90;;;;;;5038621;28;20727;-50
2021/07/26 05:51:48;;;;;;;6.73;4.27;;;18.90;99.90;;;;;;5036881;28;20209;-50
2021/07/26 05:54:15;;;;;;;5.30;4.10;;;19.00;99.90;;;;;;5037722;28;20277;-50
2021/07/26 05:56:44;;;;;;;9.00;4.90;;;19.00;99.90;;;;;;5037289;28;20229;-50
2021/07/26 05:59:10;;;;;;;7.87;4.70;;;19.00;99.90;;;;;;5037116;28;20284;-50
2021/07/26 06:01:47;;;;;;;7.67;4.93;;;19.00;99.90;;;;;;5035793;28;20518;-51
2021/07/26 06:04:18;;;;;;;7.63;4.97;;;19.10;99.90;;;;;;5039351;28;20207;-50
2021/07/26 06:06:50;;;;;;;6.80;5.27;;;19.10;99.90;;;;;;5038489;28;20237;-50
2021/07/26 06:09:18;;;;;;;9.27;5.63;;;18.90;99.90;;;;;;5038039;28;20228;-50
2021/07/26 06:11:45;;;;;;;8.60;5.83;;;18.90;99.90;;;;;;5037693;28;20206;-49
2021/07/26 06:14:12;;;;;;;7.27;5.53;;;18.90;99.90;;;;;;5038196;28;20307;-50
2021/07/26 06:16:45;;;;;;;6.97;5.73;;;18.80;99.90;;;;;;5038039;28;20202;-50
2021/07/26 06:19:13;;;;;;;7.00;5.30;;;18.90;99.90;;;;;;5038787;28;20288;-50
2021/07/26 06:21:44;;;;;;;6.97;5.50;;;19.00;99.90;;;;;;5036592;28;20248;-50
2021/07/26 06:24:12;;;;;;;6.73;5.27;;;19.10;99.90;;;;;;5036158;28;20205;-50
2021/07/26 06:26:39;;;;;;;7.57;5.60;;;19.00;99.90;;;;;;5037238;28;20283;-50
2021/07/26 06:29:06;;;;;;;8.17;6.10;;;18.90;99.90;;;;;;5038726;28;20204;-50
2021/07/26 06:31:33;;;;;;;9.40;6.20;;;19.10;99.90;;;;;;5040760;28;20718;-50
2021/07/26 06:34:00;;;;;;;9.40;5.97;;;19.20;99.90;;;;;;5037612;28;20214;-51
2021/07/26 06:36:28;;;;;;;8.93;6.13;;;19.10;99.90;;;;;;5041123;28;20706;-50
2021/07/26 06:38:55;;;;;;;7.07;5.87;;;19.00;99.90;;;;;;5035506;28;20260;-50
2021/07/26 06:41:23;;;;;;;7.27;5.77;;;19.10;99.90;;;;;;5040670;28;20279;-50
2021/07/26 06:43:51;;;;;;;11.27;6.30;;;19.20;99.90;;;;;;5033609;28;20200;-50
2021/07/26 06:46:19;;;;;;;7.53;5.80;;;19.20;99.90;;;;;;5037118;28;20642;-50
2021/07/26 06:48:46;;;;;;;8.43;6.37;;;19.10;99.90;;;;;;5033779;28;20319;-50
2021/07/26 06:51:12;;;;;;;7.93;5.70;;;19.30;99.90;;;;;;5030878;28;20262;-50
2021/07/26 06:53:39;;;;;;;9.00;5.90;;;19.30;99.90;;;;;;5035747;28;20308;-50
2021/07/26 06:56:08;;;;;;;10.50;6.33;;;19.50;99.90;;;;;;5036274;28;20305;-50
2021/07/26 06:58:35;;;;;;;7.47;5.07;;;19.90;99.90;;;;;;5040310;28;20890;-50
2021/07/26 07:01:11;;;;;;;7.03;5.40;;;19.90;99.90;;;;;;5039428;28;20324;-50
2021/07/26 07:03:45;;;;;;;6.87;5.03;;;20.00;99.90;;;;;;5039350;28;20202;-50
2021/07/26 07:06:14;;;;;;;6.73;5.33;;;20.30;99.90;;;;;;5043567;28;20723;-50
2021/07/26 07:08:42;;;;;;;9.47;5.90;;;20.40;99.90;;;;;;5045237;28;20288;-50
2021/07/26 07:11:13;;;;;;;7.13;5.37;;;20.70;99.90;;;;;;5040960;28;20240;-50
2021/07/26 07:13:43;;;;;;;7.23;5.23;;;20.60;99.90;;;;;;5041827;28;20308;-50
2021/07/26 07:16:12;;;;;;;6.30;4.77;;;20.40;99.90;;;;;;5041288;28;20263;-51
2021/07/26 07:18:39;;;;;;;10.47;5.30;;;20.50;99.90;;;;;;5040565;28;20361;-51
2021/07/26 07:21:05;;;;;;;6.20;4.50;;;20.60;99.90;;;;;;5041030;28;20202;-50
2021/07/26 07:23:33;;;;;;;9.00;5.07;;;20.50;99.90;;;;;;5035845;28;20231;-51
2021/07/26 07:26:00;;;;;;;5.40;4.70;;;20.50;99.90;;;;;;5041851;28;20206;-51
2021/07/26 07:28:27;;;;;;;7.07;5.03;;;20.50;99.90;;;;;;5038651;28;20203;-51
2021/07/26 07:30:54;;;;;;;5.80;5.07;;;20.30;99.90;;;;;;5040812;28;20207;-51
2021/07/26 07:33:21;;;;;;;8.03;5.90;;;20.40;99.90;;;;;;5040461;28;20288;-51
2021/07/26 07:35:48;;;;;;;6.70;4.93;;;20.50;99.90;;;;;;5035555;28;20645;-50
2021/07/26 07:38:18;;;;;;;5.07;4.53;;;20.40;99.90;;;;;;5036979;28;20207;-50
2021/07/26 07:40:45;;;;;;;6.93;5.60;;;20.40;99.90;;;;;;5035958;28;20206;-54
2021/07/26 07:43:12;;;;;;;6.20;5.20;;;20.50;99.90;;;;;;5035341;28;20649;-62
2021/07/26 07:45:39;;;;;;;6.93;5.10;;;20.50;99.90;;;;;;5035556;28;20718;-61
2021/07/26 07:48:06;;;;;;;5.63;5.07;;;20.40;99.90;;;;;;5033035;28;20234;-61
2021/07/26 07:50:32;;;;;;;5.97;5.13;;;20.30;99.90;;;;;;5042571;28;20298;-61
2021/07/26 07:52:59;;;;;;;5.83;4.60;;;20.30;99.90;;;;;;5039191;28;20293;-61
2021/07/26 07:55:26;;;;;;;6.13;4.50;;;20.50;99.90;;;;;;5041570;28;20326;-60
2021/07/26 07:57:53;;;;;;;11.60;4.60;;;20.70;99.90;;;;;;5041804;28;20204;-51
2021/07/26 08:00:21;;;;;;;5.03;4.53;;;20.80;99.90;;;;;;5035477;28;20832;-51
2021/07/26 08:02:48;;;;;;;5.90;4.90;;;20.90;99.90;;;;;;5037755;28;20202;-50
2021/07/26 08:05:17;;;;;;;5.53;4.13;;;21.30;99.90;;;;;;5041520;28;20200;-50
2021/07/26 08:07:44;;;;;;;4.93;4.00;;;21.70;99.90;;;;;;5041104;28;20233;-50
2021/07/26 08:10:14;;;;;;;4.93;3.70;;;21.80;90.90;;;;;;5037502;28;20210;-51
2021/07/26 08:12:42;;;;;;;5.17;4.30;;;21.90;1.00;;;;;;5035997;28;20236;-51
2021/07/26 08:15:10;;;;;;;5.70;4.27;;;21.40;45.50;;;;;;5037479;28;20301;-50
2021/07/26 08:17:40;;;;;;;4.23;3.50;;;21.20;52.20;;;;;;5033365;28;20558;-50
2021/07/26 08:20:12;;;;;;;8.40;6.47;;;21.10;99.90;;;;;;5043435;28;20197;-51
2021/07/26 08:22:39;;;;;;;4.33;3.50;;;21.20;99.90;;;;;;5043725;28;20605;-50
2021/07/26 08:25:08;;;;;;;6.23;3.50;;;21.20;99.90;;;;;;5036966;28;20288;-50
2021/07/26 08:27:50;;;;;;;4.87;3.23;;;21.00;99.90;;;;;;5039347;28;20295;-51
2021/07/26 08:30:37;;;;;;;7.17;3.50;;;21.10;99.90;;;;;;5039479;28;20332;-51
2021/07/26 08:33:05;;;;;;;4.67;3.37;;;21.00;99.90;;;;;;5032776;28;20231;-51
2021/07/26 08:35:32;;;;;;;7.67;3.63;;;20.80;99.90;;;;;;5044703;28;20224;-50
2021/07/26 08:37:59;;;;;;;8.10;3.67;;;20.80;99.90;;;;;;5039560;28;20204;-52
2021/07/26 08:40:28;;;;;;;7.33;3.00;;;20.70;99.90;;;;;;5036195;28;20200;-50
2021/07/26 08:42:57;;;;;;;2.97;2.60;;;20.70;99.90;;;;;;5036572;28;20262;-51
2021/07/26 08:45:23;;;;;;;4.77;2.63;;;20.60;99.90;;;;;;5038866;28;20295;-50
2021/07/26 08:47:50;;;;;;;4.70;3.00;;;20.80;99.90;;;;;;5033682;28;20298;-50
2021/07/26 08:50:19;;;;;;;4.00;2.87;;;20.90;99.90;;;;;;5031171;28;20677;-50
2021/07/26 08:52:49;;;;;;;3.57;3.07;;;21.00;99.90;;;;;;5037141;28;20265;-50
2021/07/26 08:55:20;;;;;;;5.17;2.67;;;21.10;99.90;;;;;;5036281;28;20314;-51
2021/07/26 08:57:48;;;;;;;2.70;2.50;;;21.20;99.90;;;;;;5036960;28;20291;-51
2021/07/26 09:00:17;;;;;;;2.87;2.50;;;21.20;92.20;;;;;;5040671;28;20262;-51
2021/07/26 09:02:50;;;;;;;3.87;2.40;;;21.20;16.50;;;;;;5038151;28;20323;-51
2021/07/26 09:05:18;;;;;;;4.40;2.50;;;21.50;38.10;;;;;;5038112;28;20232;-50
2021/07/26 09:07:47;;;;;;;2.50;2.20;;;21.60;1.00;;;;;;5043519;28;20200;-50
2021/07/26 09:10:18;;;;;;;2.43;2.00;;;21.90;1.00;;;;;;5038676;28;20226;-50
2021/07/26 09:12:48;;;;;;;2.60;2.20;;;21.50;1.00;;;;;;5040436;28;20265;-50
2021/07/26 09:15:35;;;;;;;2.80;2.40;;;21.60;1.00;;;;;;5039618;28;20212;-50
2021/07/26 09:18:05;;;;;;;5.50;2.63;;;21.60;1.00;;;;;;5040009;28;20199;-50
2021/07/26 09:20:34;;;;;;;4.70;2.37;;;21.60;1.00;;;;;;5039050;28;20335;-50
2021/07/26 09:23:17;;;;;;;3.17;2.43;;;21.60;1.00;;;;;;5038153;28;20244;-50
2021/07/26 09:25:45;;;;;;;2.33;2.13;;;21.70;1.00;;;;;;5037805;28;20242;-50
2021/07/26 09:28:16;;;;;;;3.60;2.50;;;21.60;1.00;;;;;;5038802;28;20269;-50
2021/07/26 09:30:54;;;;;;;2.30;2.03;;;22.00;1.00;;;;;;5040345;28;20238;-51
2021/07/26 09:33:27;;;;;;;3.77;2.43;;;22.30;1.00;;;;;;5040068;28;20293;-50
2021/07/26 09:36:13;;;;;;;3.57;2.30;;;22.30;1.00;;;;;;5036682;28;20637;-50
2021/07/26 09:38:52;;;;;;;4.53;2.50;;;22.30;1.00;;;;;;5040715;28;20278;-50
2021/07/26 09:41:45;;;;;;;3.40;2.80;;;22.20;1.00;;;;;;5038117;28;20208;-50
2021/07/26 09:44:13;;;;;;;2.87;2.33;;;22.10;99.90;;;;;;5037940;28;20207;-51
2021/07/26 09:46:41;;;;;;;2.73;2.37;;;21.90;1.00;;;;;;5036464;28;20243;-51
2021/07/26 09:49:17;;;;;;;2.87;2.60;;;22.20;1.00;;;;;;5041016;28;20218;-51
2021/07/26 09:52:05;;;;;;;2.93;2.40;;;22.60;99.90;;;;;;5039082;28;20294;-51
2021/07/26 09:54:50;;;;;;;3.50;2.60;;;23.00;1.00;;;;;;5037787;28;20222;-51
2021/07/26 09:57:18;;;;;;;4.67;2.73;;;23.20;1.00;;;;;;5036632;28;20562;-51
2021/07/26 09:59:46;;;;;;;2.90;2.60;;;23.50;1.00;;;;;;5036416;28;20640;-51
2021/07/26 10:02:21;;;;;;;3.70;3.00;;;23.70;99.90;;;;;;5036784;28;20322;-51
2021/07/26 10:04:49;;;;;;;3.00;2.67;;;23.30;1.00;;;;;;5037156;28;20296;-51
2021/07/26 10:07:17;;;;;;;2.90;2.60;;;23.10;99.90;;;;;;5034394;28;20211;-51
2021/07/26 10:09:48;;;;;;;4.17;2.67;;;22.90;68.40;;;;;;5038625;28;20290;-50
2021/07/26 10:12:17;;;;;;;3.00;2.70;;;22.50;1.00;;;;;;5040352;28;20200;-51
2021/07/26 10:14:47;;;;;;;4.60;2.80;;;21.90;1.00;;;;;;5034241;28;20214;-50
2021/07/26 10:17:14;;;;;;;5.90;2.97;;;21.60;1.00;;;;;;5035291;28;20302;-51
2021/07/26 10:19:41;;;;;;;3.03;2.73;;;21.50;37.80;;;;;;5036396;28;20249;-51
2021/07/26 10:22:15;;;;;;;5.33;2.10;;;21.00;99.90;;;;;;5039716;28;20653;-51
2021/07/26 10:24:54;;;;;;;3.40;2.00;;;21.20;99.90;;;;;;5034707;28;20291;-51
2021/07/26 10:27:27;;;;;;;2.73;1.80;;;21.20;99.00;;;;;;5034596;28;20612;-51
2021/07/26 10:29:56;;;;;;;4.10;2.90;;;21.00;99.90;;;;;;5035273;28;20341;-51
2021/07/26 10:32:29;;;;;;;3.70;2.93;;;20.90;99.90;;;;;;5037185;28;20699;-51
2021/07/26 10:35:47;;;;;;;4.07;3.10;;;20.90;91.50;;;;;;5037750;28;20341;-50
2021/07/26 10:38:15;;;;;;;3.93;3.33;;;21.00;99.90;;;;;;5037613;28;20701;-51
2021/07/26 10:40:42;;;;;;;3.83;3.07;;;21.20;99.90;;;;;;5039577;28;20289;-51
2021/07/26 10:43:15;;;;;;;7.03;3.90;;;21.40;2.80;;;;;;5037881;28;20195;-51
2021/07/26 10:45:42;;;;;;;5.30;3.60;;;21.50;1.00;;;;;;5037195;28;20243;-51
2021/07/26 10:48:21;;;;;;;4.90;3.50;;;21.60;1.00;;;;;;5035151;28;20698;-50
2021/07/26 10:50:53;;;;;;;4.90;3.53;;;21.60;1.20;;;;;;5034995;28;20281;-50
2021/07/26 10:53:32;;;;;;;3.47;3.00;;;21.90;1.00;;;;;;5035649;28;20312;-50
2021/07/26 10:56:11;;;;;;;5.80;3.97;;;21.90;1.00;;;;;;5036765;28;20778;-50
2021/07/26 10:58:38;;;;;;;4.43;3.63;;;21.70;1.00;;;;;;5036332;28;20290;-50
2021/07/26 11:01:20;;;;;;;5.67;4.03;;;21.70;1.00;;;;;;5034946;28;20252;-52
2021/07/26 11:03:48;;;;;;;5.43;3.70;;;22.10;1.00;;;;;;5034815;28;20207;-51
2021/07/26 11:06:39;;;;;;;7.30;4.03;;;22.00;1.00;;;;;;5036045;28;20313;-50
2021/07/26 11:09:20;;;;;;;6.97;4.07;;;21.90;1.00;;;;;;5026721;28;21481;-50
2021/07/26 11:11:49;;;;;;;5.97;4.17;;;22.00;1.00;;;;;;5034382;28;20770;-50
2021/07/26 11:14:16;;;;;;;5.50;3.77;;;22.00;1.00;;;;;;5029841;28;20265;-50
2021/07/26 11:16:49;;;;;;;3.93;3.50;;;22.20;1.00;;;;;;5029084;28;20547;-51
2021/07/26 11:19:58;;;;;;;6.50;3.60;;;22.60;1.00;;;;;;5027539;28;20278;-50
2021/07/26 11:22:29;;;;;;;5.17;3.83;;;22.70;1.00;;;;;;5029823;28;20243;-51
2021/07/26 11:25:03;;;;;;;5.80;4.40;;;22.90;1.00;;;;;;5032286;28;20287;-51
2021/07/26 11:27:31;;;;;;;5.33;4.00;;;23.00;1.00;;;;;;5027722;28;20294;-50
2021/07/26 11:29:58;;;;;;;4.37;3.47;;;23.10;1.00;;;;;;5037172;28;20207;-50
2021/07/26 11:32:27;;;;;;;4.77;3.73;;;23.20;99.90;;;;;;5024820;28;20857;-50
2021/07/26 11:34:58;;;;;;;4.47;3.90;;;22.50;99.90;;;;;;5029081;28;20653;-51
2021/07/26 11:37:30;;;;;;;4.87;3.83;;;22.20;99.90;;;;;;5026921;28;20226;-51
2021/07/26 11:40:04;;;;;;;6.43;4.57;;;21.80;1.00;;;;;;5037503;28;20205;-51
2021/07/26 11:42:36;;;;;;;8.27;4.53;;;21.40;1.00;;;;;;5044083;28;20199;-50
2021/07/26 11:45:07;;;;;;;8.87;4.77;;;21.30;99.90;;;;;;5046552;28;20207;-50
2021/07/26 11:47:40;;;;;;;6.80;5.57;;;21.00;99.90;;;;;;5044451;28;20281;-51
2021/07/26 11:50:08;;;;;;;8.77;5.47;;;20.90;99.90;;;;;;5047347;28;20212;-52
2021/07/26 11:52:36;;;;;;;7.47;4.87;;;21.10;99.90;;;;;;5046933;28;20387;-50
2021/07/26 11:55:15;;;;;;;6.67;5.50;;;21.60;99.90;;;;;;5045605;28;20280;-51
2021/07/26 11:57:58;;;;;;;5.90;4.80;;;22.30;99.90;;;;;;5045556;28;20250;-51
2021/07/26 12:00:39;;;;;;;9.97;5.03;;;22.40;99.90;;;;;;5046108;28;20292;-51
2021/07/26 12:03:06;;;;;;;6.60;5.30;;;22.20;39.70;;;;;;5048777;28;20578;-51
2021/07/26 12:05:35;;;;;;;6.90;5.03;;;21.70;52.30;;;;;;5044930;28;20298;-50
2021/07/26 12:08:17;;;;;;;6.60;5.23;;;21.30;99.90;;;;;;5047436;28;20261;-51
2021/07/26 12:10:46;;;;;;;7.53;5.67;;;21.00;99.90;;;;;;5045613;28;20291;-50
2021/07/26 12:13:14;;;;;;;8.00;5.73;;;20.90;99.90;;;;;;5045836;28;20235;-50
2021/07/26 12:15:42;;;;;;;6.53;5.00;;;20.90;99.90;;;;;;5041349;28;20696;-50
2021/07/26 12:18:32;;;;;;;7.17;5.60;;;20.90;99.90;;;;;;5047391;28;20204;-50
2021/07/26 12:21:00;;;;;;;11.70;5.80;;;20.80;99.90;;;;;;5045657;28;20211;-50
2021/07/26 12:23:28;;;;;;;8.00;6.03;;;20.90;99.90;;;;;;5046508;28;20195;-50
2021/07/26 12:25:57;;;;;;;9.57;6.57;;;20.90;99.90;;;;;;5047323;28;20232;-50
2021/07/26 12:28:54;;;;;;;10.20;6.60;;;20.90;99.90;;;;;;5045306;28;20208;-50
2021/07/26 12:31:31;;;;;;;12.53;8.23;;;21.30;99.90;;;;;;5043386;28;20247;-50
2021/07/26 12:34:21;;;;;;;10.73;7.50;;;21.70;99.90;;;;;;5046558;28;20207;-51
2021/07/26 12:36:49;;;;;;;11.37;8.27;;;21.80;99.90;;;;;;5045280;28;20296;-51
2021/07/26 12:39:18;;;;;;;11.30;8.57;;;22.10;99.90;;;;;;5044268;28;20249;-50
2021/07/26 12:41:47;;;;;;;10.97;8.30;;;22.30;99.90;;;;;;5046893;28;20240;-50
2021/07/26 12:44:19;;;;;;;13.23;8.50;;;22.30;99.90;;;;;;5045759;28;20691;-50
2021/07/26 12:46:47;;;;;;;11.13;8.13;;;22.40;99.90;;;;;;5044712;28;20679;-50
2021/07/26 12:49:16;;;;;;;10.33;6.90;;;22.30;99.90;;;;;;5045681;28;20212;-50
2021/07/26 12:51:43;;;;;;;7.70;6.70;;;22.50;99.90;;;;;;5046403;28;20227;-50
2021/07/26 12:54:10;;;;;;;9.50;6.67;;;22.50;99.90;;;;;;5045884;28;20345;-52
2021/07/26 12:56:37;;;;;;;12.60;7.10;;;22.40;99.90;;;;;;5046381;28;20661;-49
2021/07/26 12:59:04;;;;;;;11.33;8.60;;;22.10;99.90;;;;;;5046085;28;20277;-50
2021/07/26 13:01:31;;;;;;;11.70;8.57;;;21.40;99.90;;;;;;5044504;28;20617;-50
2021/07/26 13:03:57;;;;;;;12.07;8.40;;;20.80;99.90;;;;;;5044860;28;20528;-50
2021/07/26 13:06:25;;;;;;;12.27;8.47;;;20.60;99.90;;;;;;5037368;28;20298;-50
2021/07/26 13:08:54;;;;;;;8.23;6.33;;;20.20;99.90;;;;;;5041354;28;20224;-50